sensor_id;sensor_type;location;lat;lon;timestamp;pressure;altitude;pressure_sealevel;temperature;humidity
19210;BME280;9738;51.654;14.238;2023-03-21T00:01:13;100609.28;;;9.03;100.00
19210;BME280;9738;51.654;14.238;2023-03-21T00:03:40;100612.09;;;9.02;100.00
19210;BME280;9738;51.654;14.238;2023-03-21T00:06:10;100610.56;;;8.99;100.00
19210;BME280;9738;51.654;14.238;2023-03-21T00:08:36;100611.41;;;9.00;100.00
19210;BME280;9738;51.654;14.238;2023-03-21T00:11:05;100608.88;;;8.98;100.00
19210;BME280;9738;51.654;14.238;2023-03-21T00:13:32;100609.00;;;8.97;100.00
19210;BME280;9738;51.654;14.238;2023-03-21T00:16:06;100608.28;;;8.94;100.00
19210;BME280;9738;51.654;14.238;2023-03-21T00:18:32;100601.53;;;8.90;100.00
19210;BME280;9738;51.654;14.238;2023-03-21T00:21:03;100598.19;;;8.88;100.00
19210;BME280;9738;51.654;14.238;2023-03-21T00:23:32;100601.00;;;8.87;100.00
19210;BME280;9738;51.654;14.238;2023-03-21T00:25:58;100599.84;;;8.80;100.00
19210;BME280;9738;51.654;14.238;2023-03-21T00:28:25;100587.78;;;8.76;100.00
19210;BME280;9738;51.654;14.238;2023-03-21T00:30:56;100589.75;;;8.74;100.00
19210;BME280;9738;51.654;14.238;2023-03-21T00:33:22;100592.41;;;8.74;100.00
19210;BME280;9738;51.654;14.238;2023-03-21T00:35:49;100583.97;;;8.69;100.00
19210;BME280;9738;51.654;14.238;2023-03-21T00:38:18;100593.94;;;8.66;100.00
19210;BME280;9738;51.654;14.238;2023-03-21T00:40:44;100588.59;;;8.66;100.00
19210;BME280;9738;51.654;14.238;2023-03-21T00:43:11;100590.53;;;8.64;100.00
19210;BME280;9738;51.654;14.238;2023-03-21T00:45:37;100591.66;;;8.62;100.00
19210;BME280;9738;51.654;14.238;2023-03-21T00:48:04;100594.47;;;8.60;100.00
19210;BME280;9738;51.654;14.238;2023-03-21T00:50:30;100590.13;;;8.59;100.00
19210;BME280;9738;51.654;14.238;2023-03-21T00:52:57;100588.41;;;8.58;100.00
19210;BME280;9738;51.654;14.238;2023-03-21T00:55:23;100586.88;;;8.56;100.00
19210;BME280;9738;51.654;14.238;2023-03-21T00:57:49;100589.69;;;8.54;100.00
19210;BME280;9738;51.654;14.238;2023-03-21T01:00:15;100580.97;;;8.52;100.00
19210;BME280;9738;51.654;14.238;2023-03-21T01:02:42;100593.97;;;8.46;100.00
19210;BME280;9738;51.654;14.238;2023-03-21T01:05:23;100595.22;;;8.42;100.00
19210;BME280;9738;51.654;14.238;2023-03-21T01:08:15;100592.72;;;8.40;100.00
19210;BME280;9738;51.654;14.238;2023-03-21T01:10:46;100588.34;;;8.39;100.00
19210;BME280;9738;51.654;14.238;2023-03-21T01:13:14;100585.97;;;8.36;100.00
19210;BME280;9738;51.654;14.238;2023-03-21T01:15:46;100587.03;;;8.33;100.00
19210;BME280;9738;51.654;14.238;2023-03-21T01:18:13;100590.66;;;8.32;100.00
19210;BME280;9738;51.654;14.238;2023-03-21T01:20:41;100592.75;;;8.29;100.00
19210;BME280;9738;51.654;14.238;2023-03-21T01:23:08;100590.50;;;8.24;100.00
19210;BME280;9738;51.654;14.238;2023-03-21T01:25:35;100595.13;;;8.22;100.00
19210;BME280;9738;51.654;14.238;2023-03-21T01:28:01;100592.69;;;8.19;100.00
19210;BME280;9738;51.654;14.238;2023-03-21T01:30:27;100596.47;;;8.17;100.00
19210;BME280;9738;51.654;14.238;2023-03-21T01:32:54;100592.38;;;8.12;100.00
19210;BME280;9738;51.654;14.238;2023-03-21T01:35:19;100603.31;;;8.09;100.00
19210;BME280;9738;51.654;14.238;2023-03-21T01:37:45;100594.59;;;8.07;100.00
19210;BME280;9738;51.654;14.238;2023-03-21T01:40:19;100594.59;;;8.07;100.00
19210;BME280;9738;51.654;14.238;2023-03-21T01:42:46;100596.53;;;8.05;100.00
19210;BME280;9738;51.654;14.238;2023-03-21T01:48:18;100592.22;;;8.04;100.00
19210;BME280;9738;51.654;14.238;2023-03-21T01:50:44;100590.53;;;8.03;100.00
19210;BME280;9738;51.654;14.238;2023-03-21T01:53:11;100588.00;;;8.02;100.00
19210;BME280;9738;51.654;14.238;2023-03-21T01:55:39;100588.00;;;8.02;100.00
19210;BME280;9738;51.654;14.238;2023-03-21T01:58:07;100584.63;;;8.00;100.00
19210;BME280;9738;51.654;14.238;2023-03-21T02:00:35;100591.75;;;7.99;100.00
19210;BME280;9738;51.654;14.238;2023-03-21T02:03:05;100588.38;;;7.97;100.00
19210;BME280;9738;51.654;14.238;2023-03-21T02:05:47;100584.28;;;7.93;100.00
19210;BME280;9738;51.654;14.238;2023-03-21T02:08:16;100582.47;;;7.94;100.00
19210;BME280;9738;51.654;14.238;2023-03-21T02:10:44;100589.63;;;7.93;100.00
19210;BME280;9738;51.654;14.238;2023-03-21T02:13:12;100581.50;;;7.95;100.00
19210;BME280;9738;51.654;14.238;2023-03-21T02:15:42;100582.38;;;7.95;100.00
19210;BME280;9738;51.654;14.238;2023-03-21T02:21:17;100585.97;;;7.94;100.00
19210;BME280;9738;51.654;14.238;2023-03-21T02:35:48;100572.56;;;7.96;100.00
19210;BME280;9738;51.654;14.238;2023-03-21T02:41:12;100570.00;;;7.94;100.00
19210;BME280;9738;51.654;14.238;2023-03-21T02:46:21;100574.38;;;7.95;100.00
19210;BME280;9738;51.654;14.238;2023-03-21T02:49:02;100577.06;;;7.95;100.00
19210;BME280;9738;51.654;14.238;2023-03-21T02:51:32;100576.19;;;7.95;100.00
19210;BME280;9738;51.654;14.238;2023-03-21T02:54:03;100575.34;;;7.94;100.00
19210;BME280;9738;51.654;14.238;2023-03-21T02:56:31;100572.69;;;7.94;100.00
19210;BME280;9738;51.654;14.238;2023-03-21T02:58:59;100576.19;;;7.95;100.00
19210;BME280;9738;51.654;14.238;2023-03-21T03:01:26;100571.59;;;7.97;100.00
19210;BME280;9738;51.654;14.238;2023-03-21T03:03:53;100569.78;;;7.97;100.00
19210;BME280;9738;51.654;14.238;2023-03-21T03:06:24;100573.28;;;7.98;100.00
19210;BME280;9738;51.654;14.238;2023-03-21T03:11:42;100570.84;;;7.95;100.00
19210;BME280;9738;51.654;14.238;2023-03-21T03:20:27;100580.22;;;7.89;100.00
19210;BME280;9738;51.654;14.238;2023-03-21T03:23:16;100583.13;;;7.86;100.00
19210;BME280;9738;51.654;14.238;2023-03-21T03:25:53;100577.81;;;7.86;100.00
19210;BME280;9738;51.654;14.238;2023-03-21T03:28:24;100568.84;;;7.87;100.00
19210;BME280;9738;51.654;14.238;2023-03-21T03:30:53;100573.34;;;7.86;100.00
19210;BME280;9738;51.654;14.238;2023-03-21T03:33:20;100575.16;;;7.86;100.00
19210;BME280;9738;51.654;14.238;2023-03-21T03:35:48;100576.13;;;7.85;100.00
19210;BME280;9738;51.654;14.238;2023-03-21T03:38:16;100561.16;;;7.84;100.00
19210;BME280;9738;51.654;14.238;2023-03-21T03:40:47;100570.94;;;7.83;100.00
19210;BME280;9738;51.654;14.238;2023-03-21T03:43:21;100563.09;;;7.82;100.00
19210;BME280;9738;51.654;14.238;2023-03-21T03:45:57;100568.09;;;7.75;100.00
19210;BME280;9738;51.654;14.238;2023-03-21T03:48:27;100573.28;;;7.77;100.00
19210;BME280;9738;51.654;14.238;2023-03-21T03:51:06;100571.56;;;7.76;100.00
19210;BME280;9738;51.654;14.238;2023-03-21T03:53:37;100576.91;;;7.76;100.00
19210;BME280;9738;51.654;14.238;2023-03-21T03:56:07;100574.25;;;7.76;100.00
19210;BME280;9738;51.654;14.238;2023-03-21T03:58:34;100576.19;;;7.74;100.00
19210;BME280;9738;51.654;14.238;2023-03-21T04:01:00;100579.81;;;7.73;100.00
19210;BME280;9738;51.654;14.238;2023-03-21T04:03:26;100579.00;;;7.72;100.00
19210;BME280;9738;51.654;14.238;2023-03-21T04:05:52;100575.72;;;7.69;100.00
19210;BME280;9738;51.654;14.238;2023-03-21T04:08:19;100581.88;;;7.69;100.00
19210;BME280;9738;51.654;14.238;2023-03-21T04:10:48;100574.31;;;7.65;100.00
19210;BME280;9738;51.654;14.238;2023-03-21T04:13:14;100575.16;;;7.65;100.00
19210;BME280;9738;51.654;14.238;2023-03-21T04:15:40;100576.16;;;7.64;100.00
19210;BME280;9738;51.654;14.238;2023-03-21T04:18:06;100578.19;;;7.61;100.00
19210;BME280;9738;51.654;14.238;2023-03-21T04:20:32;100580.16;;;7.58;100.00
19210;BME280;9738;51.654;14.238;2023-03-21T04:22:58;100573.41;;;7.54;100.00
19210;BME280;9738;51.654;14.238;2023-03-21T04:25:24;100574.09;;;7.56;100.00
19210;BME280;9738;51.654;14.238;2023-03-21T04:27:53;100580.41;;;7.55;100.00
19210;BME280;9738;51.654;14.238;2023-03-21T04:30:20;100572.81;;;7.51;100.00
19210;BME280;9738;51.654;14.238;2023-03-21T04:32:50;100584.53;;;7.48;100.00
19210;BME280;9738;51.654;14.238;2023-03-21T04:35:22;100579.59;;;7.44;100.00
19210;BME280;9738;51.654;14.238;2023-03-21T04:37:48;100577.06;;;7.42;100.00
19210;BME280;9738;51.654;14.238;2023-03-21T04:40:15;100573.00;;;7.38;100.00
19210;BME280;9738;51.654;14.238;2023-03-21T04:42:45;100583.88;;;7.35;100.00
19210;BME280;9738;51.654;14.238;2023-03-21T04:45:12;100584.50;;;7.27;100.00
19210;BME280;9738;51.654;14.238;2023-03-21T04:47:39;100579.06;;;7.29;100.00
19210;BME280;9738;51.654;14.238;2023-03-21T04:50:05;100588.50;;;7.22;100.00
19210;BME280;9738;51.654;14.238;2023-03-21T04:52:31;100582.72;;;7.17;100.00
19210;BME280;9738;51.654;14.238;2023-03-21T04:54:58;100579.84;;;7.20;100.00
19210;BME280;9738;51.654;14.238;2023-03-21T04:57:23;100580.91;;;7.17;100.00
19210;BME280;9738;51.654;14.238;2023-03-21T04:59:49;100573.78;;;7.18;100.00
19210;BME280;9738;51.654;14.238;2023-03-21T05:02:15;100582.72;;;7.17;100.00
19210;BME280;9738;51.654;14.238;2023-03-21T05:04:42;100570.28;;;7.17;100.00
19210;BME280;9738;51.654;14.238;2023-03-21T05:07:08;100571.88;;;7.20;100.00
19210;BME280;9738;51.654;14.238;2023-03-21T05:09:34;100575.94;;;7.24;100.00
19210;BME280;9738;51.654;14.238;2023-03-21T05:12:00;100576.34;;;7.19;100.00
19210;BME280;9738;51.654;14.238;2023-03-21T05:14:26;100571.88;;;7.20;100.00
19210;BME280;9738;51.654;14.238;2023-03-21T05:16:53;100574.75;;;7.17;100.00
19210;BME280;9738;51.654;14.238;2023-03-21T05:19:24;100581.53;;;7.21;100.00
19210;BME280;9738;51.654;14.238;2023-03-21T05:22:02;100585.84;;;7.22;100.00
19210;BME280;9738;51.654;14.238;2023-03-21T05:24:30;100586.34;;;7.27;100.00
19210;BME280;9738;51.654;14.238;2023-03-21T05:26:56;100587.16;;;7.27;100.00
19210;BME280;9738;51.654;14.238;2023-03-21T05:29:32;100589.00;;;7.27;100.00
19210;BME280;9738;51.654;14.238;2023-03-21T05:31:58;100595.28;;;7.26;100.00
19210;BME280;9738;51.654;14.238;2023-03-21T05:34:24;100599.84;;;7.24;100.00
19210;BME280;9738;51.654;14.238;2023-03-21T05:36:52;100600.34;;;7.18;100.00
19210;BME280;9738;51.654;14.238;2023-03-21T05:39:18;100599.66;;;7.16;100.00
19210;BME280;9738;51.654;14.238;2023-03-21T05:41:44;100597.00;;;7.16;100.00
19210;BME280;9738;51.654;14.238;2023-03-21T05:44:11;100597.47;;;7.21;100.00
19210;BME280;9738;51.654;14.238;2023-03-21T05:46:36;100598.16;;;7.23;100.00
19210;BME280;9738;51.654;14.238;2023-03-21T05:49:02;100599.84;;;7.24;100.00
19210;BME280;9738;51.654;14.238;2023-03-21T05:51:29;100599.47;;;7.28;100.00
19210;BME280;9738;51.654;14.238;2023-03-21T05:53:54;100601.03;;;7.31;100.00
19210;BME280;9738;51.654;14.238;2023-03-21T05:56:20;100600.66;;;7.36;100.00
19210;BME280;9738;51.654;14.238;2023-03-21T05:58:47;100604.03;;;7.38;100.00
19210;BME280;9738;51.654;14.238;2023-03-21T06:01:12;100592.31;;;7.40;100.00
19210;BME280;9738;51.654;14.238;2023-03-21T06:03:38;100593.03;;;7.42;100.00
19210;BME280;9738;51.654;14.238;2023-03-21T06:06:05;100599.78;;;7.46;100.00
19210;BME280;9738;51.654;14.238;2023-03-21T06:08:32;100598.81;;;7.47;100.00
19210;BME280;9738;51.654;14.238;2023-03-21T06:10:57;100598.53;;;7.50;100.00
19210;BME280;9738;51.654;14.238;2023-03-21T06:13:24;100606.97;;;7.55;100.00
19210;BME280;9738;51.654;14.238;2023-03-21T06:15:50;100605.06;;;7.57;100.00
19210;BME280;9738;51.654;14.238;2023-03-21T06:18:15;100603.22;;;7.58;100.00
19210;BME280;9738;51.654;14.238;2023-03-21T06:20:42;100606.59;;;7.60;100.00
19210;BME280;9738;51.654;14.238;2023-03-21T06:23:07;100611.53;;;7.65;100.00
19210;BME280;9738;51.654;14.238;2023-03-21T06:25:33;100612.25;;;7.67;100.00
19210;BME280;9738;51.654;14.238;2023-03-21T06:27:59;100610.19;;;7.70;100.00
19210;BME280;9738;51.654;14.238;2023-03-21T06:30:25;100605.56;;;7.72;100.00
19210;BME280;9738;51.654;14.238;2023-03-21T06:32:51;100607.72;;;7.78;100.00
19210;BME280;9738;51.654;14.238;2023-03-21T06:35:18;100612.19;;;7.78;100.00
19210;BME280;9738;51.654;14.238;2023-03-21T06:37:44;100605.19;;;7.77;100.00
19210;BME280;9738;51.654;14.238;2023-03-21T06:40:10;100609.41;;;7.79;100.00
19210;BME280;9738;51.654;14.238;2023-03-21T06:42:37;100608.19;;;7.83;100.00
19210;BME280;9738;51.654;14.238;2023-03-21T06:45:03;100610.25;;;7.80;100.00
19210;BME280;9738;51.654;14.238;2023-03-21T06:47:29;100618.91;;;7.82;100.00
19210;BME280;9738;51.654;14.238;2023-03-21T06:49:55;100611.69;;;7.84;100.00
19210;BME280;9738;51.654;14.238;2023-03-21T06:52:21;100613.22;;;7.86;100.00
19210;BME280;9738;51.654;14.238;2023-03-21T06:54:47;100611.69;;;7.84;100.00
19210;BME280;9738;51.654;14.238;2023-03-21T06:57:13;100614.81;;;7.89;100.00
19210;BME280;9738;51.654;14.238;2023-03-21T06:59:39;100619.84;;;7.92;100.00
19210;BME280;9738;51.654;14.238;2023-03-21T07:02:07;100626.00;;;7.93;100.00
19210;BME280;9738;51.654;14.238;2023-03-21T07:04:34;100620.16;;;7.99;100.00
19210;BME280;9738;51.654;14.238;2023-03-21T07:07:00;100618.22;;;8.01;100.00
19210;BME280;9738;51.654;14.238;2023-03-21T07:09:26;100614.31;;;8.05;100.00
19210;BME280;9738;51.654;14.238;2023-03-21T07:11:53;100619.78;;;8.03;100.00
19210;BME280;9738;51.654;14.238;2023-03-21T07:14:19;100622.97;;;7.97;100.00
19210;BME280;9738;51.654;14.238;2023-03-21T07:16:45;100621.28;;;7.96;100.00
19210;BME280;9738;51.654;14.238;2023-03-21T07:19:11;100615.81;;;7.98;100.00
19210;BME280;9738;51.654;14.238;2023-03-21T07:21:37;100616.38;;;8.01;100.00
19210;BME280;9738;51.654;14.238;2023-03-21T07:24:03;100620.75;;;8.02;100.00
19210;BME280;9738;51.654;14.238;2023-03-21T07:26:29;100629.69;;;8.01;100.00
19210;BME280;9738;51.654;14.238;2023-03-21T07:28:55;100619.06;;;8.01;100.00
19210;BME280;9738;51.654;14.238;2023-03-21T07:31:20;100631.13;;;8.05;100.00
19210;BME280;9738;51.654;14.238;2023-03-21T07:33:47;100620.81;;;8.12;100.00
19210;BME280;9738;51.654;14.238;2023-03-21T07:36:14;100624.06;;;8.16;100.00
19210;BME280;9738;51.654;14.238;2023-03-21T07:38:41;100629.94;;;8.19;100.00
19210;BME280;9738;51.654;14.238;2023-03-21T07:41:08;100623.94;;;8.17;100.00
19210;BME280;9738;51.654;14.238;2023-03-21T07:43:34;100632.88;;;8.16;100.00
19210;BME280;9738;51.654;14.238;2023-03-21T07:45:59;100636.53;;;8.15;100.00
19210;BME280;9738;51.654;14.238;2023-03-21T07:48:27;100623.78;;;8.19;100.00
19210;BME280;9738;51.654;14.238;2023-03-21T07:50:53;100635.25;;;8.19;100.00
19210;BME280;9738;51.654;14.238;2023-03-21T07:53:18;100635.72;;;8.24;100.00
19210;BME280;9738;51.654;14.238;2023-03-21T07:55:49;100634.34;;;8.30;100.00
19210;BME280;9738;51.654;14.238;2023-03-21T07:58:15;100632.69;;;8.29;100.00
19210;BME280;9738;51.654;14.238;2023-03-21T08:00:41;100628.53;;;8.36;100.00
19210;BME280;9738;51.654;14.238;2023-03-21T08:03:08;100627.03;;;8.43;100.00
19210;BME280;9738;51.654;14.238;2023-03-21T08:05:36;100626.81;;;8.56;100.00
19210;BME280;9738;51.654;14.238;2023-03-21T08:08:03;100631.91;;;8.69;100.00
19210;BME280;9738;51.654;14.238;2023-03-21T08:10:30;100624.50;;;8.72;100.00
19210;BME280;9738;51.654;14.238;2023-03-21T08:12:56;100619.59;;;8.77;100.00
19210;BME280;9738;51.654;14.238;2023-03-21T08:15:22;100632.34;;;8.74;100.00
19210;BME280;9738;51.654;14.238;2023-03-21T08:17:48;100628.84;;;8.73;100.00
19210;BME280;9738;51.654;14.238;2023-03-21T08:20:17;100636.53;;;8.66;100.00
19210;BME280;9738;51.654;14.238;2023-03-21T08:22:43;100632.75;;;8.69;100.00
19210;BME280;9738;51.654;14.238;2023-03-21T08:25:11;100631.38;;;8.75;100.00
19210;BME280;9738;51.654;14.238;2023-03-21T08:27:41;100626.63;;;8.88;100.00
19210;BME280;9738;51.654;14.238;2023-03-21T08:30:10;100631.16;;;8.97;100.00
19210;BME280;9738;51.654;14.238;2023-03-21T08:32:38;100627.94;;;9.03;100.00
19210;BME280;9738;51.654;14.238;2023-03-21T08:35:06;100629.34;;;9.07;100.00
19210;BME280;9738;51.654;14.238;2023-03-21T08:37:39;100631.31;;;9.15;100.00
19210;BME280;9738;51.654;14.238;2023-03-21T08:40:08;100632.06;;;9.17;100.00
19210;BME280;9738;51.654;14.238;2023-03-21T08:42:36;100631.22;;;9.16;100.00
19210;BME280;9738;51.654;14.238;2023-03-21T08:45:03;100635.38;;;9.09;100.00
19210;BME280;9738;51.654;14.238;2023-03-21T08:47:30;100633.00;;;9.16;100.00
19210;BME280;9738;51.654;14.238;2023-03-21T08:49:56;100628.69;;;9.25;100.00
19210;BME280;9738;51.654;14.238;2023-03-21T08:52:24;100627.56;;;9.27;100.00
19210;BME280;9738;51.654;14.238;2023-03-21T08:54:52;100620.16;;;9.31;100.00
19210;BME280;9738;51.654;14.238;2023-03-21T08:57:18;100619.03;;;9.43;100.00
19210;BME280;9738;51.654;14.238;2023-03-21T08:59:44;100624.91;;;9.46;100.00
19210;BME280;9738;51.654;14.238;2023-03-21T09:02:13;100627.03;;;9.43;100.00
19210;BME280;9738;51.654;14.238;2023-03-21T09:04:40;100621.25;;;9.47;100.00
19210;BME280;9738;51.654;14.238;2023-03-21T09:07:05;100620.97;;;9.60;100.00
19210;BME280;9738;51.654;14.238;2023-03-21T09:09:32;100629.16;;;9.68;100.00
19210;BME280;9738;51.654;14.238;2023-03-21T09:11:58;100625.34;;;9.71;100.00
19210;BME280;9738;51.654;14.238;2023-03-21T09:14:24;100625.75;;;9.76;100.00
19210;BME280;9738;51.654;14.238;2023-03-21T09:16:50;100625.50;;;9.69;100.00
19210;BME280;9738;51.654;14.238;2023-03-21T09:19:16;100627.47;;;9.67;100.00
19210;BME280;9738;51.654;14.238;2023-03-21T09:21:42;100632.78;;;9.77;100.00
19210;BME280;9738;51.654;14.238;2023-03-21T09:24:09;100637.97;;;9.88;100.00
19210;BME280;9738;51.654;14.238;2023-03-21T09:26:37;100627.44;;;9.87;100.00
19210;BME280;9738;51.654;14.238;2023-03-21T09:29:03;100631.50;;;9.71;100.00
19210;BME280;9738;51.654;14.238;2023-03-21T09:31:31;100629.41;;;9.75;100.00
19210;BME280;9738;51.654;14.238;2023-03-21T09:33:57;100625.75;;;9.86;100.00
19210;BME280;9738;51.654;14.238;2023-03-21T09:36:24;100619.28;;;9.98;100.00
19210;BME280;9738;51.654;14.238;2023-03-21T09:38:53;100621.81;;;9.99;100.00
19210;BME280;9738;51.654;14.238;2023-03-21T09:46:49;100618.69;;;10.04;100.00
19210;BME280;9738;51.654;14.238;2023-03-21T09:49:21;100623.47;;;10.10;100.00
19210;BME280;9738;51.654;14.238;2023-03-21T09:51:51;100619.94;;;10.19;100.00
19210;BME280;9738;51.654;14.238;2023-03-21T09:54:36;100621.22;;;10.25;100.00
19210;BME280;9738;51.654;14.238;2023-03-21T09:59:41;100620.59;;;10.41;100.00
19210;BME280;9738;51.654;14.238;2023-03-21T10:05:10;100620.53;;;10.60;100.00
19210;BME280;9738;51.654;14.238;2023-03-21T10:07:40;100625.03;;;10.60;100.00
19210;BME280;9738;51.654;14.238;2023-03-21T10:10:19;100618.38;;;10.73;100.00
19210;BME280;9738;51.654;14.238;2023-03-21T10:12:47;100612.59;;;10.78;100.00
19210;BME280;9738;51.654;14.238;2023-03-21T10:15:18;100615.09;;;10.79;100.00
19210;BME280;9738;51.654;14.238;2023-03-21T10:18:01;100616.00;;;10.70;100.00
19210;BME280;9738;51.654;14.238;2023-03-21T10:20:30;100603.72;;;10.77;100.00
19210;BME280;9738;51.654;14.238;2023-03-21T10:22:58;100609.66;;;10.71;100.00
19210;BME280;9738;51.654;14.238;2023-03-21T10:25:34;100608.91;;;10.79;100.00
19210;BME280;9738;51.654;14.238;2023-03-21T10:28:05;100613.03;;;10.73;100.00
19210;BME280;9738;51.654;14.238;2023-03-21T10:30:39;100619.53;;;10.61;100.00
19210;BME280;9738;51.654;14.238;2023-03-21T10:33:19;100607.59;;;10.55;100.00
19210;BME280;9738;51.654;14.238;2023-03-21T10:36:10;100614.94;;;10.53;100.00
19210;BME280;9738;51.654;14.238;2023-03-21T10:38:43;100606.66;;;10.47;100.00
19210;BME280;9738;51.654;14.238;2023-03-21T10:41:10;100611.31;;;10.45;100.00
19210;BME280;9738;51.654;14.238;2023-03-21T10:43:41;100606.50;;;10.48;100.00
19210;BME280;9738;51.654;14.238;2023-03-21T10:46:11;100611.75;;;10.50;100.00
19210;BME280;9738;51.654;14.238;2023-03-21T10:48:40;100604.44;;;10.42;100.00
19210;BME280;9738;51.654;14.238;2023-03-21T10:51:14;100608.75;;;10.53;100.00
19210;BME280;9738;51.654;14.238;2023-03-21T10:53:46;100604.91;;;10.65;100.00
19210;BME280;9738;51.654;14.238;2023-03-21T10:56:14;100599.06;;;10.79;100.00
19210;BME280;9738;51.654;14.238;2023-03-21T10:58:43;100595.19;;;10.92;100.00
19210;BME280;9738;51.654;14.238;2023-03-21T11:01:25;100601.31;;;10.84;100.00
19210;BME280;9738;51.654;14.238;2023-03-21T11:04:07;100590.47;;;10.86;100.00
19210;BME280;9738;51.654;14.238;2023-03-21T11:06:40;100594.56;;;10.80;100.00
19210;BME280;9738;51.654;14.238;2023-03-21T11:09:12;100590.47;;;10.86;100.00
19210;BME280;9738;51.654;14.238;2023-03-21T11:11:44;100593.38;;;10.92;100.00
19210;BME280;9738;51.654;14.238;2023-03-21T11:14:29;100595.59;;;10.97;100.00
19210;BME280;9738;51.654;14.238;2023-03-21T11:16:57;100585.06;;;10.95;100.00
19210;BME280;9738;51.654;14.238;2023-03-21T11:19:31;100583.09;;;11.15;100.00
19210;BME280;9738;51.654;14.238;2023-03-21T11:22:04;100578.50;;;11.25;100.00
19210;BME280;9738;51.654;14.238;2023-03-21T11:24:30;100579.59;;;11.32;100.00
19210;BME280;9738;51.654;14.238;2023-03-21T11:26:57;100581.13;;;11.35;100.00
19210;BME280;9738;51.654;14.238;2023-03-21T11:29:35;100575.25;;;11.14;100.00
19210;BME280;9738;51.654;14.238;2023-03-21T11:34:48;100575.25;;;11.14;100.00
19210;BME280;9738;51.654;14.238;2023-03-21T11:37:30;100567.28;;;11.22;100.00
19210;BME280;9738;51.654;14.238;2023-03-21T11:42:56;100561.84;;;11.31;100.00
19210;BME280;9738;51.654;14.238;2023-03-21T11:45:31;100564.25;;;11.34;100.00
19210;BME280;9738;51.654;14.238;2023-03-21T11:48:01;100558.50;;;11.29;100.00
19210;BME280;9738;51.654;14.238;2023-03-21T11:50:49;100560.72;;;11.34;100.00
19210;BME280;9738;51.654;14.238;2023-03-21T11:56:02;100555.50;;;11.50;100.00
19210;BME280;9738;51.654;14.238;2023-03-21T11:58:45;100547.25;;;11.44;100.00
19210;BME280;9738;51.654;14.238;2023-03-21T12:01:25;100543.97;;;11.50;100.00
19210;BME280;9738;51.654;14.238;2023-03-21T12:04:09;100541.91;;;11.44;100.00
19210;BME280;9738;51.654;14.238;2023-03-21T12:06:48;100537.63;;;11.51;100.00
19210;BME280;9738;51.654;14.238;2023-03-21T12:12:08;100522.91;;;11.47;100.00
19210;BME280;9738;51.654;14.238;2023-03-21T12:14:50;100528.09;;;11.48;100.00
19210;BME280;9738;51.654;14.238;2023-03-21T12:17:32;100522.13;;;11.54;100.00
19210;BME280;9738;51.654;14.238;2023-03-21T12:25:28;100518.91;;;11.51;100.00
19210;BME280;9738;51.654;14.238;2023-03-21T12:28:25;100513.56;;;11.51;100.00
19210;BME280;9738;51.654;14.238;2023-03-21T12:34:18;100509.81;;;11.44;100.00
19210;BME280;9738;51.654;14.238;2023-03-21T12:37:12;100510.41;;;11.55;100.00
19210;BME280;9738;51.654;14.238;2023-03-21T12:39:45;100506.63;;;11.58;100.00
19210;BME280;9738;51.654;14.238;2023-03-21T12:44:40;100495.53;;;11.79;100.00
19210;BME280;9738;51.654;14.238;2023-03-21T12:47:12;100489.97;;;11.90;100.00
19210;BME280;9738;51.654;14.238;2023-03-21T12:49:51;100488.63;;;11.94;100.00
19210;BME280;9738;51.654;14.238;2023-03-21T12:52:25;100485.47;;;11.99;100.00
19210;BME280;9738;51.654;14.238;2023-03-21T12:55:05;100484.47;;;12.00;100.00
19210;BME280;9738;51.654;14.238;2023-03-21T12:57:39;100475.13;;;12.04;100.00
19210;BME280;9738;51.654;14.238;2023-03-21T13:03:11;100473.50;;;12.11;100.00
19210;BME280;9738;51.654;14.238;2023-03-21T13:05:55;100476.66;;;12.14;100.00
19210;BME280;9738;51.654;14.238;2023-03-21T13:08:34;100471.56;;;12.29;100.00
19210;BME280;9738;51.654;14.238;2023-03-21T13:11:03;100465.03;;;12.32;100.00
19210;BME280;9738;51.654;14.238;2023-03-21T13:13:48;100462.91;;;12.43;100.00
19210;BME280;9738;51.654;14.238;2023-03-21T13:17:00;100456.19;;;12.39;100.00
19210;BME280;9738;51.654;14.238;2023-03-21T13:19:37;100452.22;;;12.52;100.00
19210;BME280;9738;51.654;14.238;2023-03-21T13:22:09;100455.25;;;12.65;100.00
19210;BME280;9738;51.654;14.238;2023-03-21T13:24:56;100447.91;;;12.83;100.00
19210;BME280;9738;51.654;14.238;2023-03-21T13:27:33;100435.88;;;12.79;100.00
19210;BME280;9738;51.654;14.238;2023-03-21T13:30:27;100439.38;;;12.88;100.00
19210;BME280;9738;51.654;14.238;2023-03-21T13:33:05;100429.84;;;12.93;100.00
19210;BME280;9738;51.654;14.238;2023-03-21T13:35:37;100430.16;;;12.90;100.00
19210;BME280;9738;51.654;14.238;2023-03-21T13:38:15;100424.31;;;12.95;100.00
19210;BME280;9738;51.654;14.238;2023-03-21T13:46:14;100412.75;;;12.94;100.00
19210;BME280;9738;51.654;14.238;2023-03-21T13:51:38;100405.06;;;13.32;100.00
19210;BME280;9738;51.654;14.238;2023-03-21T13:59:17;100412.44;;;13.30;100.00
19210;BME280;9738;51.654;14.238;2023-03-21T14:02:27;100411.09;;;13.26;100.00
19210;BME280;9738;51.654;14.238;2023-03-21T14:05:06;100409.91;;;13.20;100.00
19210;BME280;9738;51.654;14.238;2023-03-21T14:07:35;100411.59;;;13.05;100.00
19210;BME280;9738;51.654;14.238;2023-03-21T14:10:12;100409.06;;;12.95;100.00
19210;BME280;9738;51.654;14.238;2023-03-21T14:12:42;100406.72;;;12.92;100.00
19210;BME280;9738;51.654;14.238;2023-03-21T14:15:19;100409.06;;;12.87;100.00
19210;BME280;9738;51.654;14.238;2023-03-21T14:17:55;100405.72;;;12.85;100.00
19210;BME280;9738;51.654;14.238;2023-03-21T14:20:25;100398.34;;;12.87;100.00
19210;BME280;9738;51.654;14.238;2023-03-21T14:22:52;100393.47;;;12.75;100.00
19210;BME280;9738;51.654;14.238;2023-03-21T14:25:20;100384.75;;;12.64;100.00